Latest Weather Observations for Ernabella/Pukatja

IDS60801

Issued at 11:31 am CST Wednesday 4 May 2016 (issued every 30 minutes, with the page automatically refreshed every 10 minutes)

About weather observations | Map of weather stations | Latest weather observations for SA | Other Formats
Station Details ID: 016097 Name: PUKATJA Lat: -26.26 Lon: 132.18 Height: 703.2 m
Data from the previous 72 hours. | See also: Recent months at Ernabella/Pukatja
Date/Time
CST
Temp
°C
App
Temp
°C
Dew
Point
Rel
Hum
%
Delta-T
°C
Wind Press
QNH
hPa
Press
MSL
hPa
Rain
since 9 am
mm
Dir
 
Spd
km/h
Gust
km/h
Spd
kts
Gust
kts
04/11:30am 22.8 18.4 0.6 23 10.5 NE 13 20 7 11 1021.1 - 0.0
04/11:00am 22.3 17.6 0.8 24 10.2 ENE 15 20 8 11 1021.6 - 0.0
04/10:30am 21.2 15.8 1.5 27 9.4 ENE 19 24 10 13 1021.8 - 0.0
04/10:00am 20.9 16.4 2.2 29 9.0 ENE 15 20 8 11 1021.9 - 0.0
04/09:30am 19.3 15.0 3.1 34 7.9 ENE 15 20 8 11 1022.0 - 0.0
04/09:00am 18.0 14.4 2.7 36 7.3 ENE 11 17 6 9 1021.9 1020.3 0.0
04/08:30am 16.4 13.5 1.7 37 6.8 N 6 7 3 4 1021.8 - 0.0
04/08:00am 12.2 8.9 0.0 43 5.2 NE 7 7 4 4 1021.6 - 0.0
04/07:30am 7.7 4.1 -2.3 49 3.9 ESE 7 11 4 6 1021.2 - 0.0
04/07:00am 8.5 4.7 -1.0 51 3.8 E 9 11 5 6 1021.1 - 0.0
04/06:30am 7.1 4.0 -2.3 51 3.6 SE 4 7 2 4 1020.8 - 0.0
04/06:00am 6.7 2.5 -3.5 48 3.8 ESE 9 13 5 7 1020.4 1018.8 0.0
04/05:30am 7.6 3.9 -3.0 47 4.0 E 7 9 4 5 1020.2 - 0.0
04/05:00am 10.4 8.2 -1.3 44 4.8 CALM 0 0 0 0 1019.9 - 0.0
04/04:30am 9.2 6.5 -2.7 43 4.7 WSW 2 7 1 4 1019.7 - 0.0
04/04:00am 11.9 8.4 -1.6 39 5.6 WSW 7 9 4 5 1019.5 - 0.0
04/03:30am 10.1 7.8 -2.5 41 5.0 CALM 0 6 0 3 1019.5 - 0.0
04/03:00am 12.1 9.6 -1.1 40 5.5 NNE 2 6 1 3 1019.6 1018.0 0.0
04/02:30am 12.2 10.0 -1.7 38 5.7 CALM 0 0 0 0 1019.7 - 0.0
04/02:00am 12.1 9.7 -2.9 35 6.0 CALM 0 0 0 0 1019.7 - 0.0
04/01:30am 13.1 10.4 -2.4 34 6.4 N 2 6 1 3 1019.6 - 0.0
04/01:00am 11.6 8.0 -3.3 35 5.9 NNE 6 7 3 4 1019.8 - 0.0
04/12:30am 12.8 9.3 -3.0 33 6.4 SW 6 7 3 4 1020.1 - 0.0
04/12:00am 16.4 12.8 -2.1 28 7.9 SW 7 9 4 5 1020.2 1018.6 0.0
 
Date/Time
CST
Temp
°C
App
Temp
°C
Dew
Point
Rel
Hum
%
Delta-T
°C
Wind Press
QNH
hPa
Press
MSL
hPa
Rain
since 9 am
mm
Dir
 
Spd
km/h
Gust
km/h
Spd
kts
Gust
kts
03/11:30pm 15.8 13.1 -2.2 29 7.6 N 2 6 1 3 1020.4 - 0.0
03/11:00pm 15.6 12.1 -2.8 28 7.7 N 6 7 3 4 1020.5 - 0.0
03/10:30pm 16.1 13.8 -2.4 28 7.8 CALM 0 6 0 3 1020.4 - 0.0
03/10:00pm 19.2 14.9 -1.3 25 9.1 S 11 17 6 9 1020.5 - 0.0
03/09:56pm 19.1 14.9 -0.8 26 8.9 S 11 17 6 9 1020.4 - 0.0
03/09:30pm 13.7 11.2 -4.0 29 7.1 CALM 0 0 0 0 1020.4 - 0.0
03/09:00pm 15.7 12.0 -3.2 27 7.8 WSW 7 9 4 5 1019.9 1018.4 0.0
03/08:30pm 16.3 12.8 -3.2 26 8.1 NW 6 7 3 4 1019.8 - 0.0
03/08:00pm 16.3 12.8 -3.2 26 8.1 W 6 7 3 4 1019.6 - 0.0
03/07:30pm 19.3 14.5 -2.9 22 9.6 SW 13 13 7 7 1019.2 - 0.0
03/07:00pm 19.6 15.5 -3.3 21 9.8 WSW 9 11 5 6 1018.8 - 0.0
03/06:30pm 21.3 16.8 -3.2 19 10.7 SW 11 15 6 8 1018.5 - 0.0
03/06:00pm 23.5 17.7 -4.6 15 12.1 WSW 17 22 9 12 1018.1 1016.5 0.0
03/05:30pm 24.5 18.4 -3.8 15 12.5 SW 19 30 10 16 1017.8 - 0.0
03/05:00pm 25.1 19.5 -3.3 15 12.8 SW 17 28 9 15 1017.6 - 0.0
03/04:30pm 25.3 19.7 -3.2 15 12.8 WSW 17 22 9 12 1017.5 - 0.0
03/04:00pm 25.7 20.2 -2.0 16 12.8 SW 17 26 9 14 1017.6 - 0.0
03/03:30pm 25.3 19.2 -2.3 16 12.6 WSW 20 28 11 15 1017.5 - 0.0
03/03:00pm 25.4 19.5 -2.2 16 12.7 SW 19 26 10 14 1017.5 1015.9 0.0
03/02:30pm 25.5 20.9 -1.3 17 12.5 SW 13 30 7 16 1017.8 - 0.0
03/02:00pm 25.2 19.5 0.7 20 11.9 SW 20 32 11 17 1018.2 - 0.0
03/01:30pm 25.0 18.9 0.5 20 11.8 SSW 22 33 12 18 1018.7 - 0.0
03/01:00pm 25.0 18.9 0.5 20 11.8 SSW 22 33 12 18 1019.1 - 0.0
03/12:30pm 24.6 17.7 0.2 20 11.6 SW 26 33 14 18 1019.6 - 0.0
03/12:00pm 24.2 18.0 -0.2 20 11.5 WSW 22 30 12 16 1020.1 1018.5 0.0
03/11:30am 23.4 17.7 0.5 22 10.9 SW 20 30 11 16 1020.4 - 0.0
03/11:00am 23.0 16.8 1.9 25 10.3 SW 24 33 13 18 1020.7 - 0.0
03/10:30am 21.8 16.9 2.0 27 9.6 WSW 17 24 9 13 1020.9 - 0.0
03/10:00am 21.4 17.7 2.2 28 9.3 WSW 11 17 6 9 1020.9 - 0.0
03/09:30am 19.8 16.5 2.2 31 8.4 W 9 15 5 8 1020.8 - 0.0
03/09:00am 18.5 14.3 1.5 32 7.9 W 13 19 7 10 1020.6 1019.0 0.0
03/08:30am 17.7 13.5 1.7 34 7.5 W 13 17 7 9 1020.2 - 0.0
03/08:00am 16.0 13.0 1.7 38 6.6 W 7 11 4 6 1020.1 - 0.0
03/07:30am 14.7 10.5 1.6 41 5.9 W 13 15 7 8 1019.7 - 0.0
03/07:00am 15.2 11.4 1.7 40 6.2 WSW 11 15 6 8 1019.5 - 0.0
03/06:30am 16.0 10.7 1.7 38 6.6 SW 19 22 10 12 1019.1 - 0.0
03/06:00am 16.8 10.1 1.7 36 7.0 SW 26 32 14 17 1018.5 1016.8 0.0
03/05:46am 16.8 11.5 1.7 36 7.0 SSW 19 26 10 14 1018.3 - 0.0
03/05:30am 11.8 8.5 0.0 44 5.0 NW 7 11 4 6 1018.5 - 0.0
03/05:00am 14.6 11.4 0.8 39 6.2 WSW 7 9 4 5 1018.2 - 0.0
03/04:30am 12.8 10.8 0.2 42 5.5 CALM 0 0 0 0 1018.0 - 0.0
03/04:00am 15.0 11.7 0.4 37 6.5 WSW 7 9 4 5 1017.9 - 0.0
03/03:30am 16.5 13.5 0.6 34 7.2 SW 6 9 3 5 1018.2 - 0.0
03/03:00am 17.2 14.0 0.8 33 7.5 WSW 7 11 4 6 1018.3 1016.7 0.0
03/02:30am 17.8 14.6 0.9 32 7.8 WSW 7 13 4 7 1018.5 - 0.0
03/02:00am 17.9 14.7 0.6 31 7.9 SW 7 11 4 6 1018.6 - 0.0
03/01:30am 18.4 14.8 0.5 30 8.2 W 9 13 5 7 1018.7 - 0.0
03/01:00am 19.8 15.1 0.8 28 8.8 WSW 15 19 8 10 1018.6 - 0.0
03/12:30am 18.4 14.7 0.1 29 8.3 W 9 15 5 8 1018.8 - 0.0
03/12:00am 17.8 15.8 0.0 30 8.0 CALM 0 2 0 1 1019.0 1017.4 0.0
 
Date/Time
CST
Temp
°C
App
Temp
°C
Dew
Point
Rel
Hum
%
Delta-T
°C
Wind Press
QNH
hPa
Press
MSL
hPa
Rain
since 9 am
mm
Dir
 
Spd
km/h
Gust
km/h
Spd
kts
Gust
kts
02/11:30pm 17.9 14.6 0.1 30 8.0 W 7 9 4 5 1019.1 - 0.0
02/11:00pm 17.6 15.6 -0.2 30 8.0 CALM 0 0 0 0 1019.2 - 0.0
02/10:30pm 18.5 15.1 -0.3 28 8.5 SSW 7 9 4 5 1019.4 - 0.0
02/10:00pm 20.1 16.4 0.0 26 9.2 SW 9 9 5 5 1019.4 - 0.0
02/09:30pm 19.2 17.2 -0.2 27 8.8 CALM 0 0 0 0 1019.3 - 0.0
02/09:00pm 18.6 16.5 -0.7 27 8.6 CALM 0 0 0 0 1019.2 1017.6 0.0
02/08:30pm 19.6 15.8 -0.9 25 9.2 W 9 11 5 6 1019.2 - 0.0
02/08:00pm 19.6 15.4 -0.9 25 9.2 WNW 11 13 6 7 1019.1 - 0.0
02/07:30pm 20.7 16.5 -1.2 23 9.9 WSW 11 17 6 9 1018.8 - 0.0
02/07:00pm 22.4 17.4 -1.0 21 10.7 SW 15 19 8 10 1018.7 - 0.0
02/06:30pm 22.8 17.5 -0.6 21 10.9 SW 17 20 9 11 1018.5 - 0.0
02/06:00pm 23.8 18.5 -0.5 20 11.4 SW 17 20 9 11 1018.0 1016.4 0.0
02/05:30pm 25.3 21.1 -0.7 18 12.3 SW 11 19 6 10 1017.6 - 0.0
02/05:00pm 25.1 20.8 1.3 21 11.6 SW 13 19 7 10 1017.5 - 0.0
02/04:30pm 25.5 20.8 0.9 20 12.0 SW 15 22 8 12 1017.5 - 0.0
02/04:00pm 25.8 21.4 0.5 19 12.2 SW 13 20 7 11 1017.6 - 0.0
02/03:30pm 26.0 22.2 -0.9 17 12.7 SSW 9 15 5 8 1017.4 - 0.0
02/03:00pm 25.1 21.4 -0.1 19 12.0 SSW 9 15 5 8 1017.7 1016.1 0.0
02/02:30pm 25.1 20.5 1.3 21 11.6 WSW 15 22 8 12 1018.0 - 0.0
02/02:00pm 25.7 22.4 0.4 19 12.2 ESE 7 15 4 8 1018.3 - 0.0
02/01:30pm 25.2 20.0 0.0 19 12.0 WSW 17 22 9 12 1018.8 - 0.0
02/01:00pm 25.5 21.3 1.6 21 11.8 E 13 20 7 11 1019.1 - 0.0
02/12:30pm 25.1 21.5 3.1 24 11.1 WNW 11 17 6 9 1019.5 - 0.0
02/12:00pm 24.2 21.0 2.9 25 10.6 NW 9 17 5 9 1019.9 1018.4 0.0
02/11:30am 23.3 20.7 4.3 29 9.7 ENE 7 13 4 7 1020.3 - 0.0
02/11:00am 21.6 19.1 4.7 33 8.6 N 7 9 4 5 1020.4 - 0.0
02/10:30am 21.5 19.5 4.6 33 8.6 ESE 4 7 2 4 1020.8 - 0.0
02/10:00am 20.3 18.0 4.8 36 7.8 N 6 11 3 6 1021.0 - 0.0
02/09:30am 19.4 16.5 4.7 38 7.4 NE 9 15 5 8 1020.8 - 0.0
02/09:00am 18.3 16.5 5.2 42 6.6 NNW 4 9 2 5 1020.8 1019.2 0.0
02/08:30am 16.7 15.8 6.2 50 5.3 CALM 0 0 0 0 1020.6 - 0.0
02/08:00am 14.5 13.6 6.1 57 4.2 CALM 0 0 0 0 1020.6 - 0.0
02/07:30am 12.5 11.5 5.4 62 3.4 CALM 0 0 0 0 1020.1 - 0.0
02/07:00am 11.7 9.5 5.1 64 3.2 E 6 7 3 4 1019.8 - 0.0
02/06:30am 12.7 10.6 5.6 62 3.5 E 6 7 3 4 1019.8 - 0.0
02/06:00am 12.0 9.6 5.2 63 3.3 E 7 9 4 5 1019.5 1017.9 0.0
02/05:30am 12.3 11.2 5.0 61 3.5 CALM 0 0 0 0 1019.4 - 0.0
02/05:00am 12.6 11.2 5.3 61 3.5 ENE 2 6 1 3 1019.4 - 0.0
02/04:30am 12.4 11.3 5.3 62 3.4 CALM 0 7 0 4 1019.3 - 0.0
02/04:00am 12.5 11.4 5.2 61 3.5 CALM 0 6 0 3 1019.3 - 0.0
02/03:30am 12.8 11.3 5.2 60 3.7 ENE 2 6 1 3 1019.3 - 0.0
02/03:00am 12.3 10.4 5.0 61 3.5 ENE 4 7 2 4 1019.4 1017.8 0.0
02/02:30am 13.7 12.6 5.3 57 4.1 CALM 0 0 0 0 1019.6 - 0.0
02/02:00am 14.0 12.2 5.6 57 4.1 E 4 6 2 3 1019.4 - 0.0
02/01:30am 13.2 11.8 5.4 59 3.8 NNE 2 7 1 4 1019.7 - 0.0
02/01:00am 12.9 10.5 5.3 60 3.7 NE 7 11 4 6 1019.9 - 0.0
02/12:30am 13.4 11.0 5.3 58 3.9 E 7 9 4 5 1019.8 - 0.0
02/12:00am 14.3 11.9 5.4 55 4.4 ESE 7 9 4 5 1020.1 1018.5 0.0
 
Date/Time
CST
Temp
°C
App
Temp
°C
Dew
Point
Rel
Hum
%
Delta-T
°C
Wind Press
QNH
hPa
Press
MSL
hPa
Rain
since 9 am
mm
Dir
 
Spd
km/h
Gust
km/h
Spd
kts
Gust
kts
01/11:30pm 15.2 12.9 5.7 53 4.7 E 7 9 4 5 1020.2 - 0.0
01/11:00pm 15.5 13.4 5.7 52 4.9 ESE 6 7 3 4 1020.4 - 0.0
01/10:30pm 15.3 12.6 5.8 53 4.7 E 9 9 5 5 1020.7 - 0.0
01/10:00pm 15.4 12.7 5.6 52 4.9 NE 9 11 5 6 1021.0 - 0.0
01/09:30pm 15.9 13.6 5.8 51 5.0 E 7 9 4 5 1021.0 - 0.0
01/09:00pm 15.9 13.2 5.5 50 5.2 ENE 9 9 5 5 1020.8 1019.2 0.0
01/08:30pm 16.5 13.8 5.8 49 5.4 E 9 11 5 6 1020.7 - 0.0
01/08:00pm 16.9 13.8 5.5 47 5.7 NE 11 13 6 7 1020.7 - 0.0
01/07:30pm 16.8 14.1 5.4 47 5.7 NE 9 11 5 6 1020.3 - 0.0
01/07:00pm 17.1 14.0 5.7 47 5.7 ENE 11 13 6 7 1020.3 - 0.0
01/06:30pm 17.0 14.6 5.3 46 5.8 NE 7 7 4 4 1019.9 - 0.0
01/06:00pm 17.4 14.7 5.4 45 6.0 ENE 9 13 5 7 1019.7 1018.1 0.0
01/05:30pm 17.9 14.3 5.2 43 6.4 NE 13 15 7 8 1019.7 - 0.0
01/05:00pm 18.2 14.3 5.4 43 6.4 NE 15 19 8 10 1019.4 - 0.0
01/04:30pm 18.3 15.2 5.5 43 6.5 ENE 11 17 6 9 1019.5 - 0.0
01/04:00pm 18.6 15.9 5.5 42 6.6 NE 9 13 5 7 1019.8 - 0.0
01/03:30pm 18.4 15.3 5.6 43 6.5 ENE 11 15 6 8 1019.8 - 0.0
01/03:00pm 18.8 16.2 6.3 44 6.4 ENE 9 13 5 7 1019.9 1018.4 0.0
01/02:30pm 18.4 15.8 6.3 45 6.2 NE 9 13 5 7 1020.2 - 0.0
01/02:00pm 18.1 15.1 6.0 45 6.2 ENE 11 15 6 8 1020.4 - 0.0
01/01:30pm 18.7 15.7 6.2 44 6.4 E 11 17 6 9 1020.6 - 0.0
01/01:00pm 18.6 15.7 6.4 45 6.3 ESE 11 17 6 9 1021.1 - 0.0
01/12:30pm 17.6 14.7 6.5 48 5.7 ESE 11 17 6 9 1021.6 - 0.0
01/12:00pm 17.5 14.3 6.7 49 5.5 ESE 13 19 7 10 1022.1 1020.5 0.0

Other Formats:

Comma delimited format used in spreadsheet applications
http://www.bom.gov.au/fwo/IDS60801/IDS60801.94474.axf

JavaScript Object Notation format (JSON) in row-major order
http://www.bom.gov.au/fwo/IDS60801/IDS60801.94474.json